Flight Track Log - Related Links

Times and Time Zones

All times are in EDT time to prevent confusion due to time zone crossing. See the N762NC flight status page for this flight to view local times or setup timezone preferences in your user account.

Time Position Orientation Groundspeed Altitude Reporting Facility
EDT Latitude Longitude Course Direction KTS MPH feet Rate Location/Type
Thu 02:31:59 PM 33.6500 -84.4500 68° East 157 181 2,100  Level Atlanta TRACON
Thu 02:32:53 PM 33.6667 -84.5000 292° West 245 282 3,400 2,200 Climbing Atlanta TRACON
Thu 02:33:59 PM 33.7167 -84.5833 306° West 274 315 6,500 2,329 Climbing Atlanta TRACON
Thu 02:35:00 PM 33.8710 -84.0269 57° Northeast  Level Estimated
Thu 02:35:43 PM 33.8225 -84.5389 19° North 275 316 10,000  Level Atlanta Center
Thu 02:36:00 PM 33.9293 -83.9263 57° Northeast  Level Estimated
Thu 02:36:43 PM 33.8250 -84.4214 89° East 289 333 10,900  Level Atlanta Center
Thu 02:37:00 PM 33.9668 -83.8122 68° East  Level FlightAware Approximate
Thu 02:37:43 PM 33.8294 -84.2914 88° East 380 437 12,800  Level Atlanta Center
Thu 02:38:43 PM 33.8381 -84.1564 86° East 397 457 14,600 1,650 Climbing Atlanta Center
Thu 02:39:43 PM 33.8464 -84.0164 86° East 415 478 16,100 1,700 Climbing Atlanta Center
Thu 02:40:43 PM 33.8608 -83.8736 83° East 425 489 18,000 1,400 Climbing Atlanta Center
Thu 02:41:43 PM 33.9128 -83.7208 68° East 430 495 18,900 500 Climbing Atlanta Center
Thu 02:42:43 PM 33.9686 -83.5706 66° East 469 540 19,000 50 Climbing Atlanta Center
Thu 02:43:43 PM 34.0411 -83.4447 55° Northeast 474 545 19,000 -250 Level Atlanta Center
Thu 02:44:43 PM 34.1156 -83.3236 53° Northeast 455 524 18,500 -850 Descending Atlanta Center
Thu 02:45:43 PM 34.1878 -83.1975 55° Northeast 455 524 17,300 -1,350 Descending Atlanta Center
Thu 02:46:43 PM 34.2622 -83.0711 54° Northeast 455 524 15,800 -1,600 Descending Atlanta Center
Thu 02:47:43 PM 34.3300 -82.9497 56° Northeast 443 510 14,100 -1,750 Descending Atlanta Center
Thu 02:48:43 PM 34.3936 -82.8356 56° Northeast 430 495 12,300 -1,500 Descending Atlanta Center
Thu 02:49:43 PM 34.4592 -82.7236 55° Northeast 410 472 11,100 -850 Descending Atlanta Center
Thu 02:50:43 PM 34.5397 -82.6292 44° Northeast 400 460 10,600 -550 Descending Atlanta Center
Thu 02:51:43 PM 34.6053 -82.5347 50° Northeast 385 443 10,000 -600 Descending Atlanta Center
Thu 02:52:43 PM 34.6753 -82.4653 39° Northeast 351 404 9,400 -1,050 Descending Atlanta Center
Thu 02:53:43 PM 34.7561 -82.4258 22° Northeast 317 365 7,900 -1,450 Descending Atlanta Center
Thu 02:54:43 PM 34.8286 -82.3789 28° Northeast 304 350 6,500 -950 Descending Atlanta Center
Thu 02:55:43 PM 34.8989 -82.3267 31° Northeast 299 344 6,000 -700 Descending Atlanta Center
Thu 02:56:43 PM 34.9628 -82.2647 38° Northeast 299 344 5,100 -850 Descending Atlanta Center
Thu 02:57:43 PM 35.0306 -82.2047 36° Northeast 301 346 4,300 -800 Descending Atlanta Center
Thu 02:59:00 PM 34.9156 -82.2141 184° South  Level FlightAware Approximate
Thu 03:06:00 PM 34.8957 -82.2189 186° South  Level Estimated

Login

Don't have an account? Register now (free) for customized features, flight alerts, and more!